Terminal Aerodrome Forecast
Issued by NWS

Home | Current Version | Previous Version | Graphics & Text | Print | Product List | Glossary On
Versions: 1 2 3 4 5 6 7 8 9 10 11 12 13
000
FTUS43 KMPX 041734
TAFRWF
TAF
KRWF 041734Z 0418/0518 34013G20KT P6SM SKC
     FM042300 34008KT P6SM SKC
     FM050300 33003KT P6SM FEW120
     FM051400 20007KT P6SM SKC=

USA.gov is the U.S. government's official web portal to all federal, state and local government web resources and services.